Leadville, CO

2:26 PM MDT op 28 september 2016 (GMT -0600)
Lake County | | Change Station

Hoogte 9928 ft 39.23 °N, 106.32 °W | Updated 33 minutes ago

Partly Cloudy
Gedeeltelijk bewolkt
64 °F
Voelt als 64 °F
N
17
Wind Variabel Wind van ZZW
Gusts 22 mijl/u

Vandaag
Hoog -- | Laag -- °F
--% Kans op neerslag
Gisteren
Hoog -- | Laag -- °F
Precip. -- inches
Druk 30.08 inches
Zicht 10.0 mijlen
Wolken Gering 8500 ft
Dauwpunt 17 °F
Vochtigheid 16%
Neerslag 0.00 inches
Dikte sneeuw Niet beschikbaar.
6:59 AM 6:51 PM
Afnemende halvemaan, 4% visible
METAR KLXV 281953Z AUTO 21015G19KT 10SM FEW085 18/M08 A3053 RMK AO2 SLP184 T01781083 TSNO
Druk 30.08 inches
Zicht 10.0 mijlen
Wolken Gering 8500 ft
Dauwpunt 17 °F
Vochtigheid 16%
Neerslag 0.00 inches
Dikte sneeuw Niet beschikbaar.
6:59 AM 6:51 PM
Afnemende halvemaan, 4% visible
METAR KLXV 281953Z AUTO 21015G19KT 10SM FEW085 18/M08 A3053 RMK AO2 SLP184 T01781083 TSNO

10-Day Weather Forecast

Almanac

Astronomie

Sep. 28, 2016 Opkomst Ondergang
Werkelijke tijd
Burgerlijke schemering
Nautische schemering
Astronomische schemering
Maan
Golflengte van het zichtbare licht
Daglengte
Tomorrow will be .
, % of the Moon is Illuminated

Extremen vandaag

State Highs State Lows

Community

WunderPhotos

Upload Photos

1,942,318 foto’s ge-upload!

WunderBlog® & News

Nearby

Luchtkwaliteit

  Luchtkwaliteit LK-index Verontreinigende stof
Not available.

Dikte sneeuw

Station Depth Geometrische hoogte

Aardbevingen

Stad Distance Mag. Time & Date
Minimum magnitude displayed is 2.5.

Watertemperatuur langs de kust

Plaats Temperatuur

Stations

Nabije weerstations

Locatie station Temp. Gevoelstemperatuur Dauwpunt Vochtigheid Wind Precip. Hoogte Geactualiseerd Type
                   

Watches & Warnings

There are currently no watches in effect.